Time;durP1;ratioP1;P1;durP2;ratioP2;P2;SDS_P1;SDS_P2;PMS_P1;PMS_P2;Temp;Humidity;BMP_temperature;BMP_pressure;BME280_temperature;BME280_humidity;BME280_pressure;Samples;Min_cycle;Max_cycle;Signal;HPM_P1;HPM_P2
2022/11/12 00:00:47;;;;;;;62.97;23.80;;;;;;;6.72;100.00;102120.97;5031220;28;20095;-73
2022/11/12 00:03:14;;;;;;;51.80;23.05;;;;;;;6.71;100.00;102119.22;5037030;28;20038;-72
2022/11/12 00:05:40;;;;;;;56.47;23.90;;;;;;;6.75;100.00;102117.47;5047539;28;20051;-74
2022/11/12 00:08:07;;;;;;;59.35;22.35;;;;;;;6.75;100.00;102120.09;5044484;28;20049;-75
2022/11/12 00:10:34;;;;;;;51.75;22.60;;;;;;;6.78;100.00;102130.59;5043523;28;20493;-74
2022/11/12 00:13:00;;;;;;;50.20;21.88;;;;;;;6.80;100.00;102127.06;5036505;28;21057;-72
2022/11/12 00:15:27;;;;;;;55.35;23.67;;;;;;;6.81;100.00;102136.72;5040692;28;20040;-70
2022/11/12 00:17:54;;;;;;;58.17;23.10;;;;;;;6.87;100.00;102141.97;5044335;28;20394;-72
2022/11/12 00:20:20;;;;;;;57.00;23.33;;;;;;;6.87;100.00;102139.34;5048072;28;20092;-75
2022/11/12 00:22:47;;;;;;;55.08;22.80;;;;;;;6.88;100.00;102142.88;5042562;28;20056;-74
2022/11/12 00:25:14;;;;;;;51.42;22.58;;;;;;;6.84;100.00;102130.59;5044585;28;20049;-73
2022/11/12 00:27:42;;;;;;;62.80;24.38;;;;;;;6.82;100.00;102127.94;5043792;28;20049;-72
2022/11/12 00:30:09;;;;;;;56.42;23.27;;;;;;;6.89;100.00;102128.81;5041163;28;20132;-75
2022/11/12 00:32:36;;;;;;;53.75;24.25;;;;;;;6.92;100.00;102128.81;5039352;28;20132;-74
2022/11/12 00:35:05;;;;;;;55.10;23.70;;;;;;;6.84;100.00;102114.78;5033217;28;20588;-72
2022/11/12 00:37:36;;;;;;;59.85;23.95;;;;;;;6.83;100.00;102127.06;5045282;28;20482;-71
2022/11/12 00:40:03;;;;;;;50.17;22.88;;;;;;;6.68;100.00;102114.84;5048049;28;20080;-74
2022/11/12 00:42:30;;;;;;;51.97;22.40;;;;;;;6.82;100.00;102132.34;5044809;28;20055;-73
2022/11/12 00:44:56;;;;;;;60.65;22.88;;;;;;;6.86;100.00;102136.72;5033623;28;20053;-74
2022/11/12 00:47:23;;;;;;;50.88;19.73;;;;;;;6.80;100.00;102137.59;5050338;28;20132;-73
2022/11/12 00:49:49;;;;;;;48.97;21.83;;;;;;;6.75;100.00;102131.50;5048252;28;20516;-73
2022/11/12 00:52:17;;;;;;;66.93;20.23;;;;;;;6.73;100.00;102132.38;5040775;28;20561;-73
2022/11/12 00:54:44;;;;;;;41.40;19.23;;;;;;;6.68;100.00;102122.75;5037136;28;20147;-73
2022/11/12 00:57:10;;;;;;;42.38;19.55;;;;;;;6.64;100.00;102117.47;5040707;28;20132;-71
2022/11/12 00:59:37;;;;;;;43.58;19.75;;;;;;;6.62;100.00;102114.84;5040521;28;20056;-71
2022/11/12 01:02:03;;;;;;;45.03;19.83;;;;;;;6.59;100.00;102117.53;5046912;28;20089;-70
2022/11/12 01:04:30;;;;;;;41.17;20.67;;;;;;;6.43;100.00;102097.41;5037318;28;20072;-72
2022/11/12 01:06:56;;;;;;;56.00;20.50;;;;;;;6.52;100.00;102118.41;5046315;28;20045;-71
2022/11/12 01:09:23;;;;;;;68.63;20.83;;;;;;;6.52;100.00;102121.03;5043715;28;20175;-73
2022/11/12 01:11:50;;;;;;;43.88;19.90;;;;;;;6.60;100.00;102116.66;5052040;28;20051;-72
2022/11/12 01:14:16;;;;;;;52.83;21.27;;;;;;;6.65;100.00;102117.47;5037710;28;20057;-72
2022/11/12 01:16:43;;;;;;;51.78;20.95;;;;;;;6.45;100.00;102087.75;5047118;28;20041;-74
2022/11/12 01:19:11;;;;;;;59.58;21.70;;;;;;;6.61;100.00;102123.63;5047841;28;20044;-73
2022/11/12 01:21:41;;;;;;;47.47;18.90;;;;;;;6.42;100.00;102106.16;5037389;28;20098;-72
2022/11/12 01:24:09;;;;;;;48.53;20.13;;;;;;;6.36;100.00;102119.31;5029507;28;20052;-74
2022/11/12 01:26:36;;;;;;;45.13;17.98;;;;;;;6.26;100.00;102120.22;5047757;28;20777;-73
2022/11/12 01:29:03;;;;;;;54.20;18.60;;;;;;;6.24;100.00;102112.34;5043468;28;20046;-73
2022/11/12 01:31:34;;;;;;;44.10;17.52;;;;;;;6.20;100.00;102120.22;5048503;28;20041;-74
2022/11/12 01:34:03;;;;;;;51.85;17.70;;;;;;;6.15;100.00;102117.59;5042458;28;20156;-70
2022/11/12 01:36:33;;;;;;;37.38;15.82;;;;;;;6.09;100.00;102106.22;5039740;28;20128;-73
2022/11/12 01:39:00;;;;;;;43.17;17.20;;;;;;;6.06;100.00;102112.38;5049065;28;20063;-71
2022/11/12 01:41:29;;;;;;;47.42;17.50;;;;;;;6.02;100.00;102118.50;5039687;28;20598;-69
2022/11/12 01:44:12;;;;;;;47.93;18.17;;;;;;;5.98;100.00;102111.50;5033345;28;20061;-71
2022/11/12 01:47:10;;;;;;;61.63;18.88;;;;;;;5.99;100.00;102106.22;5044802;28;20049;-73
2022/11/12 01:49:45;;;;;;;47.10;17.73;;;;;;;6.00;100.00;102099.22;5044723;28;20055;-72
2022/11/12 01:52:27;;;;;;;45.33;17.60;;;;;;;6.05;100.00;102110.59;5047012;28;20110;-73
2022/11/12 01:54:59;;;;;;;38.40;17.85;;;;;;;6.04;100.00;102107.97;5028458;28;22580;-72
2022/11/12 01:57:36;;;;;;;52.15;19.92;;;;;;;6.08;100.00;102115.00;5044481;28;20047;-74
2022/11/12 02:00:07;;;;;;;57.95;19.52;;;;;;;6.10;100.00;102107.97;5045895;28;20052;-73
2022/11/12 02:02:35;;;;;;;49.00;18.00;;;;;;;5.99;100.00;102085.19;5055843;28;20055;-69
2022/11/12 02:05:05;;;;;;;60.72;18.23;;;;;;;5.96;100.00;102081.72;5036968;28;20121;-69
2022/11/12 02:07:33;;;;;;;53.17;18.30;;;;;;;6.06;100.00;102103.59;5046777;28;20057;-73
2022/11/12 02:10:00;;;;;;;73.70;18.10;;;;;;;6.04;100.00;102102.72;5053933;28;20057;-70
2022/11/12 02:15:13;;;;;;;66.15;18.88;;;;;;;6.08;100.00;102104.47;5034390;28;20045;-73
2022/11/12 02:17:39;;;;;;;49.47;18.48;;;;;;;5.99;100.00;102100.97;5053518;28;20056;-73
2022/11/12 02:20:11;;;;;;;48.75;17.75;;;;;;;5.98;100.00;102091.31;5053028;28;20053;-72
2022/11/12 02:22:38;;;;;;;48.75;18.98;;;;;;;6.04;100.00;102097.47;5050671;28;20037;-72
2022/11/12 02:25:05;;;;;;;48.03;19.40;;;;;;;6.05;100.00;102088.69;5034627;28;20049;-71
2022/11/12 02:27:33;;;;;;;53.30;19.38;;;;;;;6.21;100.00;102095.69;5057387;28;20048;-73
2022/11/12 02:29:59;;;;;;;45.28;18.45;;;;;;;6.22;100.00;102097.44;5041299;28;20053;-72
2022/11/12 02:32:26;;;;;;;57.90;17.70;;;;;;;6.16;100.00;102095.69;5044744;28;20448;-73
2022/11/12 02:34:52;;;;;;;48.97;17.85;;;;;;;6.09;100.00;102086.06;5037686;28;20053;-72
2022/11/12 02:37:19;;;;;;;46.75;17.95;;;;;;;6.20;100.00;102107.06;5044578;28;20056;-73
2022/11/12 02:39:45;;;;;;;44.72;18.50;;;;;;;6.17;100.00;102100.06;5044045;28;20059;-70
2022/11/12 02:42:12;;;;;;;48.65;18.05;;;;;;;6.12;100.00;102086.06;5052793;28;20498;-73
2022/11/12 02:44:38;;;;;;;54.65;18.92;;;;;;;6.26;100.00;102107.06;5037919;28;20064;-72
2022/11/12 02:47:05;;;;;;;43.13;18.10;;;;;;;6.24;100.00;102100.94;5057387;28;20050;-74
2022/11/12 02:49:31;;;;;;;48.10;18.20;;;;;;;6.27;100.00;102106.19;5044783;28;20055;-71
2022/11/12 02:51:58;;;;;;;68.13;19.35;;;;;;;6.20;100.00;102100.06;5056000;28;20127;-72
2022/11/12 02:54:25;;;;;;;51.40;19.38;;;;;;;6.19;100.00;102094.81;5037345;28;20052;-69
2022/11/12 02:56:51;;;;;;;53.95;18.65;;;;;;;6.24;100.00;102096.56;5039494;28;20531;-72
2022/11/12 02:59:18;;;;;;;57.58;20.02;;;;;;;6.25;100.00;102094.81;5042781;28;20049;-72
2022/11/12 03:01:44;;;;;;;41.78;18.85;;;;;;;6.29;100.00;102099.19;5051896;28;20042;-71
2022/11/12 03:04:11;;;;;;;51.15;18.15;;;;;;;6.20;100.00;102084.28;5037266;28;20406;-74
2022/11/12 03:06:38;;;;;;;51.83;17.95;;;;;;;6.28;100.00;102084.28;5049251;28;20163;-72
2022/11/12 03:09:05;;;;;;;61.67;19.42;;;;;;;6.32;100.00;102107.03;5042526;28;20045;-72
2022/11/12 03:11:31;;;;;;;48.08;18.67;;;;;;;6.29;100.00;102097.44;5034984;28;20075;-72
2022/11/12 03:13:58;;;;;;;53.10;19.50;;;;;;;6.37;100.00;102112.31;5040817;28;20045;-71
2022/11/12 03:16:24;;;;;;;50.78;18.48;;;;;;;6.36;100.00;102108.78;5046832;28;20053;-73
2022/11/12 03:18:51;;;;;;;44.00;19.40;;;;;;;6.37;100.00;102102.66;5047266;28;20047;-71
2022/11/12 03:21:17;;;;;;;47.92;18.58;;;;;;;6.39;100.00;102106.16;5042000;28;20513;-72
2022/11/12 03:23:44;;;;;;;45.67;18.67;;;;;;;6.41;100.00;102107.03;5039336;28;20056;-73
2022/11/12 03:26:10;;;;;;;36.95;17.25;;;;;;;6.38;100.00;102101.78;5040356;28;20582;-72
2022/11/12 03:28:37;;;;;;;39.28;17.05;;;;;;;6.40;100.00;102101.78;5050208;28;20408;-73
2022/11/12 03:31:03;;;;;;;51.97;18.83;;;;;;;6.37;100.00;102096.53;5050077;28;20075;-71
2022/11/12 03:33:30;;;;;;;43.13;17.98;;;;;;;6.37;100.00;102093.88;5043661;28;20055;-69
2022/11/12 03:35:57;;;;;;;39.40;18.00;;;;;;;6.36;100.00;102098.28;5040130;28;20055;-72
2022/11/12 03:38:23;;;;;;;45.30;18.13;;;;;;;6.18;100.00;102069.38;5042726;28;20046;-73
2022/11/12 03:40:50;;;;;;;41.83;18.48;;;;;;;6.26;100.00;102092.16;5051369;28;20051;-73
2022/11/12 03:43:17;;;;;;;45.88;18.15;;;;;;;6.13;100.00;102072.03;5049874;28;20051;-72
2022/11/12 03:45:44;;;;;;;52.63;20.92;;;;;;;6.27;100.00;102093.94;5038288;28;20055;-70
2022/11/12 03:48:10;;;;;;;42.05;19.55;;;;;;;6.33;100.00;102091.25;5055862;28;20497;-73
2022/11/12 03:50:37;;;;;;;60.47;20.48;;;;;;;6.37;100.00;102084.25;5052045;28;20063;-69
2022/11/12 03:53:03;;;;;;;61.17;20.17;;;;;;;6.37;100.00;102089.50;5050982;28;20398;-71
2022/11/12 03:55:30;;;;;;;82.13;23.00;;;;;;;6.34;100.00;102086.88;5039478;28;20584;-69
2022/11/12 03:57:57;;;;;;;66.35;22.58;;;;;;;6.30;100.00;102085.13;5046028;28;20440;-71
2022/11/12 04:00:26;;;;;;;56.88;21.33;;;;;;;6.33;100.00;102086.00;5044729;28;20469;-71
2022/11/12 04:02:53;;;;;;;52.20;20.05;;;;;;;6.35;100.00;102083.38;5042144;28;20068;-69
2022/11/12 04:08:35;;;;;;;46.78;19.58;;;;;;;6.37;100.00;102092.13;5037398;28;20068;-69
2022/11/12 04:11:05;;;;;;;58.88;21.13;;;;;;;6.41;100.00;102093.00;5041091;28;20046;-72
2022/11/12 04:13:32;;;;;;;48.00;20.77;;;;;;;6.40;100.00;102086.00;5044201;28;20048;-73
2022/11/12 04:21:50;;;;;;;53.03;22.02;;;;;;;6.24;100.00;102056.22;5041924;28;20452;-71
2022/11/12 04:27:05;;;;;;;66.63;23.42;;;;;;;6.44;100.00;102093.88;5049135;28;20151;-74
2022/11/12 04:32:18;;;;;;;56.53;21.05;;;;;;;6.43;100.00;102086.88;5050081;28;20132;-69
2022/11/12 04:34:45;;;;;;;56.17;21.60;;;;;;;6.47;100.00;102088.59;5039583;28;20053;-67
2022/11/12 04:37:11;;;;;;;47.05;20.88;;;;;;;6.49;100.00;102091.22;5040621;28;20041;-72
2022/11/12 04:39:38;;;;;;;46.30;19.77;;;;;;;6.49;100.00;102080.69;5040689;28;21551;-70
2022/11/12 04:44:58;;;;;;;47.13;21.33;;;;;;;6.38;100.00;102059.69;5038256;28;20140;-71
2022/11/12 04:47:27;;;;;;;56.65;20.50;;;;;;;6.52;100.00;102093.84;5043489;28;20122;-71
2022/11/12 04:49:53;;;;;;;47.78;21.30;;;;;;;6.52;100.00;102107.00;5052650;28;20055;-73
2022/11/12 04:52:20;;;;;;;41.75;19.83;;;;;;;6.50;100.00;102093.84;5051395;28;20132;-71
2022/11/12 04:54:47;;;;;;;49.83;21.48;;;;;;;6.54;100.00;102095.59;5048891;28;20420;-69
2022/11/12 04:57:13;;;;;;;50.35;21.77;;;;;;;6.55;100.00;102097.34;5036961;28;20409;-72
2022/11/12 04:59:40;;;;;;;47.15;21.15;;;;;;;6.57;100.00;102094.72;5041434;28;20063;-71
2022/11/12 05:02:06;;;;;;;40.10;18.90;;;;;;;6.54;100.00;102092.97;5053389;28;20138;-71
2022/11/12 05:04:33;;;;;;;36.63;18.58;;;;;;;6.50;100.00;102093.84;5036414;28;20132;-68
2022/11/12 05:07:00;;;;;;;41.45;19.55;;;;;;;6.48;100.00;102092.09;5039126;28;20150;-70
2022/11/12 05:09:28;;;;;;;36.10;16.90;;;;;;;6.32;100.00;102062.31;5033065;28;20053;-69
2022/11/12 05:11:55;;;;;;;33.13;16.42;;;;;;;6.46;100.00;102089.47;5050234;28;20421;-73
2022/11/12 05:14:23;;;;;;;36.47;16.55;;;;;;;6.48;100.00;102089.47;5041592;28;20055;-72
2022/11/12 05:16:50;;;;;;;47.35;17.42;;;;;;;6.39;100.00;102090.38;5038191;28;20045;-71
2022/11/12 05:19:17;;;;;;;27.35;15.02;;;;;;;6.39;100.00;102097.41;5043124;28;20060;-72
2022/11/12 05:24:36;;;;;;;28.02;15.85;;;;;;;6.25;100.00;102079.91;5047258;28;20056;-73
2022/11/12 05:27:13;;;;;;;31.65;14.93;;;;;;;6.31;100.00;102095.66;5040217;28;20212;-73
2022/11/12 05:29:41;;;;;;;27.75;14.57;;;;;;;6.22;100.00;102069.38;5043426;28;20061;-75
2022/11/12 05:32:10;;;;;;;27.25;15.10;;;;;;;6.41;100.00;102087.75;5050104;28;20045;-72
2022/11/12 05:34:37;;;;;;;23.40;13.90;;;;;;;6.40;100.00;102086.88;5047161;28;20055;-74
2022/11/12 05:37:05;;;;;;;27.67;14.73;;;;;;;6.48;100.00;102094.72;5030769;28;20045;-72
2022/11/12 05:39:32;;;;;;;41.83;13.35;;;;;;;6.47;100.00;102098.22;5045734;28;20059;-73
2022/11/12 05:41:59;;;;;;;27.27;13.30;;;;;;;6.42;100.00;102093.00;5042772;28;20072;-70
2022/11/12 05:44:41;;;;;;;23.20;13.18;;;;;;;6.39;100.00;102089.50;5042985;28;20057;-73
2022/11/12 05:47:07;;;;;;;21.67;12.80;;;;;;;6.41;100.00;102100.91;5035883;28;20082;-71
2022/11/12 05:49:34;;;;;;;26.42;12.27;;;;;;;6.33;100.00;102095.66;5044072;28;20075;-72
2022/11/12 05:52:00;;;;;;;26.60;14.25;;;;;;;6.16;100.00;102071.13;5045559;28;20128;-68
2022/11/12 05:54:27;;;;;;;25.48;13.70;;;;;;;6.26;100.00;102086.03;5041936;28;20068;-68
2022/11/12 05:56:53;;;;;;;25.45;14.95;;;;;;;6.32;100.00;102101.78;5037258;28;20048;-73
2022/11/12 05:59:21;;;;;;;33.15;16.67;;;;;;;6.13;100.00;102069.41;5047343;28;20052;-73
2022/11/12 06:01:48;;;;;;;31.58;16.40;;;;;;;6.36;100.00;102106.16;5050599;28;20061;-74
2022/11/12 06:04:15;;;;;;;31.38;17.05;;;;;;;6.39;100.00;102108.78;5044688;28;20148;-73
2022/11/12 06:06:42;;;;;;;31.48;16.50;;;;;;;6.37;100.00;102096.53;5030783;28;20045;-71
2022/11/12 06:09:10;;;;;;;30.98;16.60;;;;;;;6.35;100.00;102096.53;5038852;28;20049;-72
2022/11/12 06:11:37;;;;;;;28.65;16.05;;;;;;;6.38;100.00;102106.16;5044650;28;20075;-72
2022/11/12 06:14:04;;;;;;;25.83;15.40;;;;;;;6.26;100.00;102086.91;5043359;28;20046;-70
2022/11/12 06:16:31;;;;;;;26.55;15.73;;;;;;;6.31;100.00;102100.03;5031091;28;20046;-71
2022/11/12 06:18:57;;;;;;;31.02;14.68;;;;;;;6.33;100.00;102109.69;5034118;28;20049;-71
2022/11/12 06:21:26;;;;;;;25.45;14.35;;;;;;;6.24;100.00;102109.72;5043991;28;20044;-69
2022/11/12 06:23:58;;;;;;;24.48;13.90;;;;;;;6.08;100.00;102092.19;5041080;28;20457;-72
2022/11/12 06:26:27;;;;;;;24.67;15.18;;;;;;;6.18;100.00;102116.72;5036392;28;20048;-70
2022/11/12 06:28:54;;;;;;;28.63;15.02;;;;;;;6.24;100.00;102119.34;5046624;28;20131;-70
2022/11/12 06:31:21;;;;;;;27.95;16.08;;;;;;;6.25;100.00;102121.09;5046952;28;20818;-72
2022/11/12 06:33:48;;;;;;;24.50;15.55;;;;;;;6.25;100.00;102124.63;5040371;28;20052;-72
2022/11/12 06:36:17;;;;;;;26.27;14.95;;;;;;;6.20;100.00;102117.59;5033529;28;20073;-75
2022/11/12 06:38:44;;;;;;;29.70;14.50;;;;;;;6.12;100.00;102117.63;5039790;28;20468;-73
2022/11/12 06:41:12;;;;;;;28.00;15.43;;;;;;;6.13;100.00;102118.50;5048103;28;20045;-73
2022/11/12 06:43:40;;;;;;;26.98;15.10;;;;;;;6.02;100.00;102093.94;5045315;28;20140;-74
2022/11/12 06:46:12;;;;;;;26.02;15.95;;;;;;;6.06;100.00;102095.69;5036088;28;20860;-73
2022/11/12 06:48:40;;;;;;;26.42;14.43;;;;;;;6.23;100.00;102129.00;5047781;28;20049;-71
2022/11/12 06:51:16;;;;;;;25.15;15.13;;;;;;;6.27;100.00;102121.97;5048864;28;20152;-73
2022/11/12 06:53:42;;;;;;;25.02;14.75;;;;;;;6.24;100.00;102116.72;5040767;28;20663;-71
2022/11/12 06:56:11;;;;;;;29.80;16.95;;;;;;;6.15;100.00;102124.59;5032321;28;20111;-72
2022/11/12 06:58:38;;;;;;;26.88;15.50;;;;;;;6.15;100.00;102117.59;5048477;28;20490;-70
2022/11/12 07:01:13;;;;;;;27.38;14.80;;;;;;;6.07;100.00;102097.47;5051540;28;20045;-70
2022/11/12 07:03:41;;;;;;;26.55;14.43;;;;;;;6.22;100.00;102123.75;5044309;28;20080;-72
2022/11/12 07:06:11;;;;;;;26.95;15.13;;;;;;;6.22;100.00;102135.13;5036345;28;20132;-72
2022/11/12 07:08:38;;;;;;;24.57;14.80;;;;;;;6.19;100.00;102137.75;5040788;28;20061;-71
2022/11/12 07:11:05;;;;;;;24.77;15.07;;;;;;;6.16;100.00;102118.47;5041720;28;20045;-72
2022/11/12 07:13:33;;;;;;;26.95;15.48;;;;;;;6.19;100.00;102123.72;5050677;28;20087;-71
2022/11/12 07:16:01;;;;;;;25.98;15.57;;;;;;;6.24;100.00;102133.38;5036028;28;20508;-72
2022/11/12 07:18:29;;;;;;;28.25;15.45;;;;;;;6.23;100.00;102138.66;5040515;28;20128;-70
2022/11/12 07:21:07;;;;;;;26.02;15.48;;;;;;;6.18;100.00;102137.75;5040628;28;20076;-70
2022/11/12 07:23:35;;;;;;;31.67;16.42;;;;;;;6.18;100.00;102143.03;5043682;28;20073;-71
2022/11/12 07:26:06;;;;;;;24.60;15.27;;;;;;;6.15;100.00;102129.88;5036129;28;20053;-71
2022/11/12 07:28:32;;;;;;;;;;;;;;;6.17;100.00;102141.28;5042547;28;20055;-71
2022/11/12 07:31:02;;;;;;;25.92;15.45;;;;;;;6.18;100.00;102141.28;5038707;28;20329;-72
2022/11/12 07:33:29;;;;;;;30.92;16.55;;;;;;;6.23;100.00;102142.16;5048440;28;20576;-70
2022/11/12 07:36:16;;;;;;;26.30;16.05;;;;;;;6.25;100.00;102139.53;5040119;28;20051;-74
2022/11/12 07:38:43;;;;;;;32.13;16.02;;;;;;;6.25;100.00;102135.13;5041659;28;20682;-74
2022/11/12 07:41:18;;;;;;;29.23;16.27;;;;;;;6.29;100.00;102126.38;5040851;28;20049;-74
2022/11/12 07:43:47;;;;;;;27.88;15.98;;;;;;;6.34;100.00;102134.22;5042576;28;20460;-72
2022/11/12 07:46:17;;;;;;;30.10;16.40;;;;;;;6.35;100.00;102143.88;5031175;28;20053;-71
2022/11/12 07:48:45;;;;;;;30.05;16.00;;;;;;;6.26;100.00;102112.34;5032567;28;20573;-71
2022/11/12 07:51:20;;;;;;;23.92;14.07;;;;;;;6.34;100.00;102136.88;5039135;28;20072;-72
2022/11/12 07:53:48;;;;;;;24.92;14.43;;;;;;;6.30;100.00;102136.00;5036273;28;20155;-73
2022/11/12 07:56:17;;;;;;;21.33;12.75;;;;;;;6.32;100.00;102130.72;5033186;28;20677;-72
2022/11/12 07:58:44;;;;;;;20.17;14.02;;;;;;;6.30;100.00;102127.22;5037493;28;20045;-74
2022/11/12 08:01:36;;;;;;;22.05;13.15;;;;;;;6.24;100.00;102121.97;5041502;28;20051;-73
2022/11/12 08:04:05;;;;;;;21.42;14.02;;;;;;;6.22;100.00;102118.47;5045148;28;20045;-69
2022/11/12 08:06:32;;;;;;;19.48;12.85;;;;;;;6.22;100.00;102121.09;5026649;28;20126;-73
2022/11/12 08:09:03;;;;;;;20.48;13.15;;;;;;;6.24;100.00;102132.50;5040478;28;20124;-69
2022/11/12 08:11:29;;;;;;;;;;;;;;;6.31;100.00;102128.97;5046620;28;20060;-74
2022/11/12 08:13:56;;;;;;;21.13;13.23;;;;;;;6.42;100.00;102131.59;5043871;28;20019;-73
2022/11/12 08:16:23;;;;;;;21.73;13.48;;;;;;;6.48;100.00;102132.44;5033572;28;20051;-71
2022/11/12 08:18:49;;;;;;;23.50;13.70;;;;;;;6.50;100.00;102128.06;5042072;28;20049;-70
2022/11/12 08:21:17;;;;;;;23.58;14.40;;;;;;;6.56;100.00;102132.44;5046698;28;20092;-71
2022/11/12 08:23:44;;;;;;;20.35;13.32;;;;;;;6.56;100.00;102133.31;5041614;28;20045;-75
2022/11/12 08:26:13;;;;;;;20.15;12.95;;;;;;;6.50;100.00;102117.53;5035620;28;20057;-74
2022/11/12 08:28:40;;;;;;;20.30;12.43;;;;;;;6.64;100.00;102138.53;5043107;28;20092;-73
2022/11/12 08:31:12;;;;;;;17.33;11.55;;;;;;;6.62;100.00;102132.41;5042380;28;20361;-75
2022/11/12 08:33:39;;;;;;;22.00;13.45;;;;;;;6.57;100.00;102142.09;5048121;28;20053;-74
2022/11/12 08:36:08;;;;;;;19.52;12.80;;;;;;;6.52;100.00;102134.19;5035279;28;20049;-71
2022/11/12 08:38:35;;;;;;;19.52;13.60;;;;;;;6.52;100.00;102133.31;5040413;28;20469;-74
2022/11/12 08:41:05;;;;;;;20.58;13.48;;;;;;;6.55;100.00;102136.81;5040979;28;20485;-72
2022/11/12 08:43:32;;;;;;;22.23;14.13;;;;;;;6.45;100.00;102113.19;5040141;28;20067;-73
2022/11/12 08:46:00;;;;;;;21.83;13.50;;;;;;;6.56;100.00;102133.31;5034395;28;20049;-67
2022/11/12 08:48:28;;;;;;;23.00;13.88;;;;;;;6.61;100.00;102134.16;5038493;28;20045;-71
2022/11/12 08:50:55;;;;;;;22.92;14.55;;;;;;;6.64;100.00;102142.06;5043131;28;20065;-72
2022/11/12 08:53:23;;;;;;;21.02;13.75;;;;;;;6.67;100.00;102143.81;5039585;28;20045;-74
2022/11/12 08:55:55;;;;;;;22.52;14.50;;;;;;;6.68;100.00;102141.16;5036733;28;20519;-72
2022/11/12 08:58:22;;;;;;;20.50;13.70;;;;;;;6.65;100.00;102135.91;5037101;28;20053;-73
2022/11/12 09:00:50;;;;;;;19.67;13.43;;;;;;;6.60;100.00;102137.69;5042141;28;20044;-72
2022/11/12 09:03:19;;;;;;;18.48;12.90;;;;;;;6.58;100.00;102135.94;5044607;28;20041;-73
2022/11/12 09:05:46;;;;;;;22.20;13.63;;;;;;;6.61;100.00;102141.22;5036628;28;20051;-70
2022/11/12 09:08:18;;;;;;;19.92;13.52;;;;;;;6.66;100.00;102140.28;5040582;28;20143;-75
2022/11/12 09:10:45;;;;;;;19.23;13.95;;;;;;;6.43;100.00;102100.03;5042008;28;20061;-75
2022/11/12 09:13:13;;;;;;;21.42;14.48;;;;;;;6.69;100.00;102148.19;5045732;28;20092;-71
2022/11/12 09:15:40;;;;;;;23.38;15.10;;;;;;;6.66;100.00;102142.06;5039486;28;20049;-72
2022/11/12 09:18:11;;;;;;;25.42;16.02;;;;;;;6.60;100.00;102147.34;5034533;28;20039;-72
2022/11/12 09:20:38;;;;;;;22.50;15.80;;;;;;;6.57;100.00;102148.22;5038983;28;20088;-73
2022/11/12 09:23:13;;;;;;;23.38;15.65;;;;;;;6.63;100.00;102144.69;5038647;28;20076;-75
2022/11/12 09:25:40;;;;;;;25.02;16.23;;;;;;;6.66;100.00;102142.94;5036348;28;20049;-73
2022/11/12 09:28:14;;;;;;;26.23;15.77;;;;;;;6.67;100.00;102138.53;5039054;28;20055;-72
2022/11/12 09:30:45;;;;;;;24.25;16.20;;;;;;;6.51;100.00;102127.19;5038660;28;20412;-72
2022/11/12 09:33:23;;;;;;;;;;;;;;;6.50;100.00;102135.94;5045240;28;20051;-74
2022/11/12 09:35:50;;;;;;;28.05;17.63;;;;;;;6.46;100.00;102134.19;5041662;28;19956;-72
2022/11/12 09:38:18;;;;;;;26.38;17.73;;;;;;;6.47;100.00;102138.59;5031978;28;20477;-72
2022/11/12 09:40:50;;;;;;;26.55;17.23;;;;;;;6.47;100.00;102128.06;5041845;28;20047;-71
2022/11/12 09:43:19;;;;;;;26.48;17.80;;;;;;;6.65;100.00;102138.53;5039453;28;20144;-74
2022/11/12 09:45:46;;;;;;;28.23;18.05;;;;;;;6.62;100.00;102122.75;5038412;28;20053;-75
2022/11/12 09:48:39;;;;;;;25.30;17.05;;;;;;;6.79;100.00;102148.16;5039476;28;20519;-69
2022/11/12 09:51:15;;;;;;;25.85;18.05;;;;;;;6.81;100.00;102142.00;5040665;28;20144;-73
2022/11/12 09:53:50;;;;;;;31.02;18.33;;;;;;;6.74;100.00;102144.69;5050958;28;20053;-74
2022/11/12 09:56:19;;;;;;;25.00;17.88;;;;;;;6.72;100.00;102149.94;5037841;28;20056;-73
2022/11/12 09:58:47;;;;;;;26.83;17.38;;;;;;;6.54;100.00;102126.31;5040962;28;20497;-73
2022/11/12 10:01:16;;;;;;;26.90;18.30;;;;;;;6.68;100.00;102154.34;5041460;28;20495;-76
2022/11/12 10:03:56;;;;;;;25.95;17.35;;;;;;;6.60;100.00;102150.88;5045653;28;20057;-73
2022/11/12 10:06:42;;;;;;;30.58;17.77;;;;;;;6.52;100.00;102147.34;5040345;28;20045;-70
2022/11/12 10:09:47;;;;;;;26.50;18.00;;;;;;;6.47;100.00;102142.97;5032401;28;20063;-75
2022/11/12 10:12:39;;;;;;;25.48;17.35;;;;;;;6.41;100.00;102120.19;5035250;28;20052;-72
2022/11/12 10:18:23;;;;;;;27.73;18.38;;;;;;;6.75;100.00;102136.78;5032204;28;20045;-74
2022/11/12 10:20:55;;;;;;;29.83;19.35;;;;;;;6.79;100.00;102135.84;5047223;28;20041;-75
2022/11/12 10:23:39;;;;;;;28.02;18.75;;;;;;;6.78;100.00;102115.66;5041888;28;21732;-74
2022/11/12 10:26:15;;;;;;;28.13;18.90;;;;;;;6.88;100.00;102095.47;5041605;28;20071;-72
2022/11/12 10:28:51;;;;;;;29.23;20.25;;;;;;;6.92;100.00;102091.94;5038145;28;20398;-75
2022/11/12 10:31:20;;;;;;;31.10;20.55;;;;;;;7.11;100.00;102113.75;5042430;28;20045;-75
2022/11/12 10:33:46;;;;;;;28.30;18.35;;;;;;;7.18;100.00;102116.38;5047679;28;20804;-74
2022/11/12 10:36:30;;;;;;;28.10;19.08;;;;;;;7.21;100.00;102107.59;5045865;28;20135;-72
2022/11/12 10:38:57;;;;;;;28.48;19.88;;;;;;;7.18;100.00;102104.97;5040048;28;20124;-75
2022/11/12 10:41:32;;;;;;;24.98;17.90;;;;;;;7.27;100.00;102111.03;5048315;28;20456;-72
2022/11/12 10:44:04;;;;;;;26.65;18.27;;;;;;;7.28;100.00;102089.06;5047722;28;20373;-74
2022/11/12 10:46:34;;;;;;;22.20;16.25;;;;;;;7.47;100.00;102107.41;5042452;28;20139;-71
2022/11/12 10:49:02;;;;;;;21.73;15.95;;;;;;;7.36;100.00;102097.81;5044896;28;20059;-73
2022/11/12 10:51:37;;;;;;;22.38;16.17;;;;;;;7.44;100.00;102116.19;5046285;28;20127;-73
2022/11/12 10:54:18;;;;;;;21.35;15.48;;;;;;;7.39;100.00;102113.63;5043832;28;20070;-74
2022/11/12 10:56:46;;;;;;;20.45;15.43;;;;;;;7.48;100.00;102104.75;5045878;28;20091;-72
2022/11/12 10:59:16;;;;;;;20.27;15.23;;;;;;;7.46;100.00;102095.09;5043734;28;20045;-76
2022/11/12 11:01:44;;;;;;;19.63;14.38;;;;;;;7.56;100.00;102096.78;5043500;28;20076;-74
2022/11/12 11:04:24;;;;;;;19.75;15.40;;;;;;;7.69;100.00;102109.88;5045034;28;20048;-73
2022/11/12 11:07:03;;;;;;;18.77;15.15;;;;;;;7.77;100.00;102104.53;5034639;28;20196;-74
2022/11/12 11:09:30;;;;;;;18.83;14.57;;;;;;;7.84;100.00;102102.72;5042071;28;20045;-75
2022/11/12 11:11:57;;;;;;;20.60;16.27;;;;;;;7.92;100.00;102098.25;5054459;28;20140;-75
2022/11/12 11:14:30;;;;;;;18.15;14.82;;;;;;;8.00;100.00;102099.94;5048287;28;20050;-77
2022/11/12 11:17:07;;;;;;;20.10;15.30;;;;;;;7.99;100.00;102100.84;5034302;28;20152;-73
2022/11/12 11:19:37;;;;;;;22.05;15.15;;;;;;;7.85;100.00;102093.94;5036472;28;20042;-72
2022/11/12 11:22:28;;;;;;;20.70;15.57;;;;;;;7.75;100.00;102098.41;5045233;28;20068;-76
2022/11/12 11:25:19;;;;;;;20.75;16.05;;;;;;;7.65;100.00;102087.06;5037713;28;20148;-73
2022/11/12 11:27:51;;;;;;;21.42;16.50;;;;;;;7.60;100.00;102090.59;5038200;28;20136;-74
2022/11/12 11:30:19;;;;;;;21.15;16.50;;;;;;;7.57;100.00;102077.44;5041622;28;20477;-74
2022/11/12 11:33:17;;;;;;;20.55;16.15;;;;;;;7.56;100.00;102080.97;5048297;28;20057;-74
2022/11/12 11:36:13;;;;;;;20.70;16.55;;;;;;;7.54;100.00;102081.00;5041756;28;20163;-68
2022/11/12 11:38:47;;;;;;;23.77;16.60;;;;;;;7.34;100.00;102078.50;5036450;28;20045;-72
2022/11/12 11:41:17;;;;;;;23.45;17.25;;;;;;;7.18;100.00;102071.59;5040055;28;20053;-74
2022/11/12 11:44:00;;;;;;;25.00;17.02;;;;;;;7.13;100.00;102049.66;5062392;28;20057;-70
2022/11/12 11:46:47;;;;;;;21.63;15.75;;;;;;;7.37;100.00;102065.31;5045593;28;20044;-71